Time;durP1;ratioP1;P1;durP2;ratioP2;P2;SDS_P1;SDS_P2;PMS_P1;PMS_P2;Temp;Humidity;BMP_temperature;BMP_pressure;BME280_temperature;BME280_humidity;BME280_pressure;Samples;Min_cycle;Max_cycle;Signal;HPM_P1;HPM_P2
2022/08/15 00:01:07;;;;;;;0.70;0.20;;;25.70;99.90;;;;;;5053110;28;21080;-73
2022/08/15 00:03:39;;;;;;;0.80;0.37;;;25.80;99.90;;;;;;5053068;28;20426;-73
2022/08/15 00:06:32;;;;;;;0.70;0.20;;;25.80;99.90;;;;;;5052794;28;20438;-74
2022/08/15 00:09:12;;;;;;;0.70;0.10;;;25.80;99.90;;;;;;5053041;28;20485;-74
2022/08/15 00:11:43;;;;;;;0.70;0.10;;;25.80;99.90;;;;;;5051644;28;20482;-74
2022/08/15 00:14:18;;;;;;;0.70;0.10;;;25.90;99.90;;;;;;5052635;28;20585;-74
2022/08/15 00:17:00;;;;;;;0.70;0.20;;;26.00;99.90;;;;;;5052794;28;21001;-74
2022/08/15 00:19:31;;;;;;;0.70;0.20;;;26.10;99.90;;;;;;5052767;28;20446;-74
2022/08/15 00:22:04;;;;;;;0.80;0.20;;;26.10;99.90;;;;;;5052460;28;20446;-74
2022/08/15 00:24:46;;;;;;;0.70;0.10;;;26.10;99.90;;;;;;5052943;28;20438;-74
2022/08/15 00:27:24;;;;;;;0.70;0.30;;;25.70;99.90;;;;;;5052920;28;20434;-74
2022/08/15 00:29:53;;;;;;;0.70;0.20;;;26.10;99.90;;;;;;5052409;28;20557;-74
2022/08/15 00:32:23;;;;;;;1.33;0.30;;;26.00;99.90;;;;;;5053066;28;20545;-73
2022/08/15 00:37:56;;;;;;;0.90;0.30;;;25.80;99.90;;;;;;5051961;28;20449;-73
2022/08/15 00:43:24;;;;;;;1.13;0.83;;;25.80;99.90;;;;;;5051846;28;20770;-73
2022/08/15 00:45:58;;;;;;;0.70;0.33;;;25.70;99.90;;;;;;5052417;28;20507;-73
2022/08/15 00:48:44;;;;;;;0.70;0.10;;;25.70;99.90;;;;;;5052454;28;20450;-73
2022/08/15 00:51:16;;;;;;;0.70;0.20;;;25.60;99.90;;;;;;5052737;28;20508;-73
2022/08/15 00:53:49;;;;;;;0.70;0.20;;;25.50;99.90;;;;;;5052484;28;20512;-73
2022/08/15 00:56:22;;;;;;;0.80;0.40;;;25.50;99.90;;;;;;5052325;28;20474;-73
2022/08/15 00:58:59;;;;;;;1.17;1.03;;;25.40;99.90;;;;;;5052235;28;20525;-73
2022/08/15 01:01:34;;;;;;;0.90;0.70;;;25.40;99.90;;;;;;5052669;28;20462;-72
2022/08/15 01:04:09;;;;;;;1.20;0.60;;;25.30;99.90;;;;;;5052249;28;20453;-73
2022/08/15 01:06:46;;;;;;;0.90;0.50;;;25.20;99.90;;;;;;5052403;28;20496;-73
2022/08/15 01:09:19;;;;;;;0.80;0.57;;;25.20;99.90;;;;;;5052610;28;20481;-73
2022/08/15 01:11:54;;;;;;;0.90;0.30;;;25.20;99.90;;;;;;5051995;28;20557;-74
2022/08/15 01:14:24;;;;;;;2.63;0.87;;;25.20;99.90;;;;;;5052406;28;20446;-74
2022/08/15 01:17:13;;;;;;;0.70;0.40;;;25.20;99.90;;;;;;5052219;28;20442;-75
2022/08/15 01:19:44;;;;;;;0.80;0.30;;;25.10;99.90;;;;;;5052726;28;20816;-75
2022/08/15 01:22:30;;;;;;;0.70;0.10;;;25.20;99.90;;;;;;5053020;28;20816;-75
2022/08/15 01:25:05;;;;;;;2.50;1.80;;;25.10;99.90;;;;;;5053556;28;20931;-75
2022/08/15 01:27:58;;;;;;;0.90;0.40;;;25.20;99.90;;;;;;5052820;28;20439;-75
2022/08/15 01:30:29;;;;;;;3.30;3.10;;;25.20;99.90;;;;;;5033466;28;20459;-76
2022/08/15 01:33:17;;;;;;;0.70;0.10;;;25.20;99.90;;;;;;5032355;28;20497;-75
2022/08/15 01:35:51;;;;;;;0.70;0.10;;;25.20;99.90;;;;;;5032924;28;20529;-74
2022/08/15 01:38:25;;;;;;;0.70;0.13;;;25.20;99.90;;;;;;5033455;28;20447;-74
2022/08/15 01:41:20;;;;;;;0.70;0.13;;;25.30;99.90;;;;;;5033562;28;21005;-75
2022/08/15 01:44:13;;;;;;;1.77;0.97;;;25.30;99.90;;;;;;5033124;28;20445;-75
2022/08/15 01:47:05;;;;;;;0.70;0.20;;;25.30;99.90;;;;;;5032579;28;20439;-75
2022/08/15 01:49:47;;;;;;;0.90;0.20;;;25.10;99.90;;;;;;5032286;28;20466;-75
2022/08/15 01:52:32;;;;;;;0.70;0.20;;;25.10;99.90;;;;;;5032422;28;20453;-75
2022/08/15 01:55:25;;;;;;;0.80;0.30;;;25.00;99.90;;;;;;5032004;28;20475;-75
2022/08/15 01:58:02;;;;;;;0.70;0.27;;;24.90;99.90;;;;;;5032223;28;20435;-75
2022/08/15 02:00:30;;;;;;;1.27;0.57;;;24.80;99.90;;;;;;5032219;28;20845;-76
2022/08/15 02:03:01;;;;;;;0.70;0.20;;;24.70;99.90;;;;;;5032934;28;20447;-76
2022/08/15 02:05:30;;;;;;;0.80;0.30;;;24.80;99.90;;;;;;5033555;28;20443;-75
2022/08/15 02:07:59;;;;;;;0.70;0.20;;;24.70;99.90;;;;;;5032405;28;20443;-75
2022/08/15 02:10:46;;;;;;;1.20;0.57;;;24.70;99.90;;;;;;5031146;28;20899;-75
2022/08/15 02:13:18;;;;;;;0.70;0.20;;;24.70;99.90;;;;;;5033085;28;20501;-75
2022/08/15 02:15:52;;;;;;;2.13;2.00;;;24.70;99.90;;;;;;5031957;28;20582;-74
2022/08/15 02:18:20;;;;;;;0.97;0.40;;;24.50;99.90;;;;;;5031179;28;20493;-75
2022/08/15 02:20:48;;;;;;;0.70;0.10;;;24.50;99.90;;;;;;5031975;28;20901;-75
2022/08/15 02:23:19;;;;;;;0.70;0.20;;;24.50;99.90;;;;;;5032288;28;20921;-75
2022/08/15 02:25:50;;;;;;;0.70;0.20;;;24.50;99.90;;;;;;5031313;28;20593;-75
2022/08/15 02:28:23;;;;;;;1.30;0.50;;;24.50;99.90;;;;;;5034256;28;21016;-72
2022/08/15 02:31:10;;;;;;;1.87;1.07;;;24.30;99.90;;;;;;5051061;28;20461;-71
2022/08/15 02:33:41;;;;;;;2.00;1.07;;;24.40;99.90;;;;;;5051123;28;20449;-71
2022/08/15 02:36:16;;;;;;;1.00;0.50;;;24.30;99.90;;;;;;5054858;28;20484;-71
2022/08/15 02:39:00;;;;;;;0.70;0.20;;;24.30;99.90;;;;;;5055427;28;20450;-71
2022/08/15 02:41:31;;;;;;;0.70;0.10;;;24.30;99.90;;;;;;5055074;28;20481;-71
2022/08/15 02:44:12;;;;;;;0.70;0.10;;;24.40;99.90;;;;;;5054649;28;20525;-71
2022/08/15 02:46:50;;;;;;;1.13;0.80;;;24.50;99.90;;;;;;5054591;28;20438;-71
2022/08/15 02:49:33;;;;;;;0.90;0.33;;;24.50;99.90;;;;;;5055101;28;20453;-71
2022/08/15 02:52:15;;;;;;;0.83;0.47;;;24.40;99.90;;;;;;5060854;28;20813;-71
2022/08/15 02:54:49;;;;;;;1.43;0.90;;;24.50;99.90;;;;;;5056537;28;20526;-72
2022/08/15 02:57:31;;;;;;;0.70;0.20;;;24.40;99.90;;;;;;5055103;28;20780;-73
2022/08/15 03:00:21;;;;;;;1.03;0.63;;;24.40;99.90;;;;;;5054659;28;20837;-72
2022/08/15 03:02:56;;;;;;;1.33;0.60;;;24.40;99.90;;;;;;5054225;28;20576;-72
2022/08/15 03:05:27;;;;;;;2.77;2.50;;;24.40;99.90;;;;;;5054773;28;20447;-71
2022/08/15 03:07:55;;;;;;;1.00;0.20;;;24.40;99.90;;;;;;5054286;28;20518;-72
2022/08/15 03:10:24;;;;;;;0.70;0.20;;;24.40;99.90;;;;;;5054292;28;20520;-71
2022/08/15 03:12:59;;;;;;;1.00;0.30;;;24.50;99.90;;;;;;5045729;28;20991;-72
2022/08/15 03:15:31;;;;;;;1.13;1.03;;;24.50;99.90;;;;;;5033441;28;20439;-71
2022/08/15 03:18:02;;;;;;;0.70;0.20;;;24.40;99.90;;;;;;5034324;28;20530;-72
2022/08/15 03:20:31;;;;;;;0.70;0.17;;;24.40;99.90;;;;;;5034173;28;20653;-72
2022/08/15 03:23:03;;;;;;;2.73;1.60;;;24.40;99.90;;;;;;5033472;28;20596;-72
2022/08/15 03:25:32;;;;;;;0.70;0.20;;;24.30;99.90;;;;;;5034154;28;20555;-72
2022/08/15 03:28:21;;;;;;;0.70;0.10;;;24.30;99.90;;;;;;5037438;28;20851;-72
2022/08/15 03:30:57;;;;;;;0.70;0.10;;;24.30;99.90;;;;;;5054223;28;20458;-72
2022/08/15 03:33:26;;;;;;;1.23;1.13;;;24.30;99.90;;;;;;5053815;28;20444;-72
2022/08/15 03:36:15;;;;;;;1.43;0.60;;;24.20;99.90;;;;;;5053376;28;20470;-72
2022/08/15 03:38:51;;;;;;;0.80;0.33;;;24.10;99.90;;;;;;5053794;28;20445;-72
2022/08/15 03:41:25;;;;;;;1.33;0.70;;;24.00;99.90;;;;;;5053718;28;20464;-71
2022/08/15 03:43:53;;;;;;;0.70;0.20;;;24.10;99.90;;;;;;5053662;28;20506;-72
2022/08/15 03:46:23;;;;;;;0.83;0.47;;;24.10;99.90;;;;;;5052232;28;20449;-71
2022/08/15 03:48:53;;;;;;;0.80;0.40;;;24.10;99.90;;;;;;5054271;28;20871;-72
2022/08/15 03:51:26;;;;;;;0.80;0.40;;;24.00;99.90;;;;;;5053728;28;20546;-72
2022/08/15 03:53:59;;;;;;;0.70;0.10;;;24.00;99.90;;;;;;5053390;28;20448;-72
2022/08/15 03:56:31;;;;;;;0.70;0.20;;;24.10;99.90;;;;;;5053165;28;20485;-72
2022/08/15 03:59:00;;;;;;;0.90;0.40;;;24.10;99.90;;;;;;5052497;28;20545;-72
2022/08/15 04:01:33;;;;;;;0.70;0.17;;;24.00;99.90;;;;;;5053823;28;20466;-73
2022/08/15 04:04:01;;;;;;;1.33;1.23;;;24.00;99.90;;;;;;5053359;28;20900;-72
2022/08/15 04:06:30;;;;;;;1.40;0.70;;;24.10;99.90;;;;;;5053014;28;20439;-72
2022/08/15 04:08:59;;;;;;;1.20;1.03;;;24.10;99.90;;;;;;5053211;28;20450;-71
2022/08/15 04:11:42;;;;;;;1.67;0.77;;;;;;;;;;5081316;22;20505;-74
2022/08/15 04:14:12;;;;;;;0.93;0.87;;;24.00;99.90;;;;;;5073990;28;20804;-73
2022/08/15 04:17:01;;;;;;;1.47;1.37;;;23.90;99.90;;;;;;5074122;28;20474;-72
2022/08/15 04:19:45;;;;;;;2.70;0.77;;;23.80;99.90;;;;;;5075521;28;20450;-73
2022/08/15 04:22:18;;;;;;;1.20;0.83;;;23.80;99.90;;;;;;5082885;28;20489;-72
2022/08/15 04:25:09;;;;;;;0.80;0.30;;;23.90;99.90;;;;;;5081184;28;20438;-73
2022/08/15 04:27:46;;;;;;;0.90;0.50;;;23.80;99.90;;;;;;5075449;28;20574;-72
2022/08/15 04:30:22;;;;;;;0.70;0.10;;;23.80;99.90;;;;;;5072426;28;20495;-73
2022/08/15 04:32:52;;;;;;;1.63;0.40;;;23.80;99.90;;;;;;5073868;28;20448;-72
2022/08/15 04:35:28;;;;;;;0.70;0.20;;;23.80;99.90;;;;;;5075051;28;20434;-73
2022/08/15 04:37:57;;;;;;;0.87;0.47;;;23.80;99.90;;;;;;5074469;28;20539;-73
2022/08/15 04:40:28;;;;;;;1.10;1.00;;;23.80;99.90;;;;;;5074167;28;20496;-73
2022/08/15 04:43:17;;;;;;;0.80;0.40;;;23.80;99.90;;;;;;5073583;28;20450;-73
2022/08/15 04:45:46;;;;;;;0.70;0.20;;;23.80;99.90;;;;;;5072967;28;20441;-73
2022/08/15 04:48:17;;;;;;;3.00;1.13;;;23.80;99.90;;;;;;5072729;28;20442;-73
2022/08/15 04:50:50;;;;;;;0.70;0.20;;;23.90;99.90;;;;;;5072676;28;20811;-73
2022/08/15 04:53:20;;;;;;;0.70;0.10;;;23.90;99.90;;;;;;5073123;28;20473;-73
2022/08/15 04:55:59;;;;;;;2.00;1.90;;;23.90;99.90;;;;;;5074000;28;20464;-73
2022/08/15 04:58:31;;;;;;;0.70;0.20;;;23.90;99.90;;;;;;5072893;28;20484;-73
2022/08/15 05:01:18;;;;;;;0.70;0.30;;;23.80;99.90;;;;;;5073626;28;20458;-73
2022/08/15 05:03:50;;;;;;;0.70;0.20;;;23.80;99.90;;;;;;5072447;28;20450;-73
2022/08/15 05:06:22;;;;;;;3.00;0.97;;;23.80;99.90;;;;;;5072581;28;20446;-74
2022/08/15 05:08:59;;;;;;;2.10;1.50;;;23.90;99.90;;;;;;5072500;28;20444;-73
2022/08/15 05:11:29;;;;;;;0.97;0.50;;;23.80;99.90;;;;;;5072335;28;20505;-72
2022/08/15 05:14:17;;;;;;;1.27;0.87;;;23.80;99.90;;;;;;5072338;28;20916;-73
2022/08/15 05:17:05;;;;;;;3.60;1.63;;;23.70;99.90;;;;;;5072025;28;20481;-73
2022/08/15 05:19:38;;;;;;;1.90;1.60;;;23.60;99.90;;;;;;5072547;28;20935;-72
2022/08/15 05:22:06;;;;;;;1.50;0.67;;;23.50;99.90;;;;;;5073058;28;20472;-72
2022/08/15 05:24:35;;;;;;;0.83;0.50;;;23.40;99.90;;;;;;5074342;28;20445;-72
2022/08/15 05:27:04;;;;;;;1.00;0.50;;;23.30;99.90;;;;;;5073081;28;20441;-72
2022/08/15 05:29:37;;;;;;;1.23;0.70;;;23.40;99.90;;;;;;5073008;28;20472;-71
2022/08/15 05:32:09;;;;;;;0.80;0.30;;;23.40;99.90;;;;;;5072561;28;20561;-71
2022/08/15 05:34:47;;;;;;;0.80;0.30;;;23.40;99.90;;;;;;5072236;28;20441;-70
2022/08/15 05:37:18;;;;;;;1.80;1.70;;;23.40;99.90;;;;;;5072357;28;20680;-70
2022/08/15 05:39:48;;;;;;;1.07;0.60;;;23.40;99.90;;;;;;5072163;28;20544;-71
2022/08/15 05:42:27;;;;;;;1.10;0.30;;;23.40;99.90;;;;;;5072511;28;20536;-71
2022/08/15 05:45:09;;;;;;;0.73;0.23;;;23.40;99.90;;;;;;5072365;28;20442;-70
2022/08/15 05:47:43;;;;;;;1.37;1.17;;;23.30;99.90;;;;;;5072352;28;20476;-70
2022/08/15 05:50:27;;;;;;;0.90;0.80;;;23.30;99.90;;;;;;5072562;28;20453;-70
2022/08/15 05:53:05;;;;;;;0.70;0.17;;;23.30;99.90;;;;;;5071845;28;20445;-71
2022/08/15 05:55:40;;;;;;;1.90;0.43;;;23.30;99.90;;;;;;5071405;28;20532;-71
2022/08/15 05:58:24;;;;;;;1.27;1.17;;;23.30;99.90;;;;;;5071900;28;20477;-71
2022/08/15 06:01:15;;;;;;;9.13;0.97;;;23.30;99.90;;;;;;5075871;28;20457;-70
2022/08/15 06:03:51;;;;;;;0.70;0.20;;;23.30;99.90;;;;;;5072211;28;20449;-72
2022/08/15 06:06:27;;;;;;;0.70;0.20;;;23.30;99.90;;;;;;5066852;28;20468;-71
2022/08/15 06:09:04;;;;;;;2.50;2.30;;;23.30;99.90;;;;;;5069556;28;20437;-71
2022/08/15 06:11:38;;;;;;;0.70;0.27;;;23.30;99.90;;;;;;5070822;28;21006;-71
2022/08/15 06:14:21;;;;;;;0.70;0.37;;;23.30;99.90;;;;;;5072407;28;20476;-71
2022/08/15 06:17:06;;;;;;;2.50;2.30;;;23.30;99.90;;;;;;5071910;28;20445;-71
2022/08/15 06:19:41;;;;;;;0.80;0.50;;;23.20;99.90;;;;;;5071533;28;20445;-72
2022/08/15 06:22:26;;;;;;;0.70;0.13;;;23.20;99.90;;;;;;5071617;28;20516;-73
2022/08/15 06:25:07;;;;;;;0.70;0.37;;;23.20;99.90;;;;;;5071869;28;20774;-71
2022/08/15 06:27:45;;;;;;;2.03;0.80;;;23.20;99.90;;;;;;5071887;28;20441;-71
2022/08/15 06:30:20;;;;;;;0.70;0.20;;;23.30;99.90;;;;;;5068761;28;20523;-70
2022/08/15 06:32:53;;;;;;;0.90;0.53;;;23.30;99.90;;;;;;5069308;28;20816;-70
2022/08/15 06:35:32;;;;;;;0.70;0.23;;;23.30;99.90;;;;;;5071231;28;20442;-72
2022/08/15 06:38:13;;;;;;;0.70;0.20;;;23.30;99.90;;;;;;5072191;28;20486;-72
2022/08/15 06:41:06;;;;;;;0.70;0.20;;;23.30;99.90;;;;;;5072177;28;20461;-73
2022/08/15 06:43:34;;;;;;;0.70;0.20;;;23.30;99.90;;;;;;5069264;28;20513;-73
2022/08/15 06:46:05;;;;;;;0.87;0.30;;;23.30;99.90;;;;;;5071838;28;20854;-73
2022/08/15 06:48:53;;;;;;;5.87;1.53;;;23.30;99.90;;;;;;5070086;28;20422;-72
2022/08/15 06:51:34;;;;;;;3.20;0.80;;;23.30;99.90;;;;;;5071606;28;20462;-72
2022/08/15 06:54:17;;;;;;;0.70;0.20;;;23.20;99.90;;;;;;5071607;28;20468;-73
2022/08/15 06:57:08;;;;;;;0.80;0.20;;;23.20;99.90;;;;;;5071718;28;20444;-73
2022/08/15 06:59:53;;;;;;;0.70;0.10;;;23.20;99.90;;;;;;5071938;28;20456;-72
2022/08/15 07:02:46;;;;;;;0.70;0.20;;;23.30;99.90;;;;;;5071455;28;20442;-73
2022/08/15 07:05:27;;;;;;;0.70;0.30;;;23.40;99.90;;;;;;5070015;28;20553;-73
2022/08/15 07:08:10;;;;;;;0.73;0.30;;;23.40;99.90;;;;;;5069949;28;20495;-72
2022/08/15 07:10:45;;;;;;;0.70;0.10;;;23.40;99.90;;;;;;5070606;28;20768;-74
2022/08/15 07:13:20;;;;;;;0.70;0.20;;;23.40;99.90;;;;;;5068669;28;20855;-72
2022/08/15 07:15:55;;;;;;;0.70;0.20;;;23.50;99.90;;;;;;5071897;28;20445;-72
2022/08/15 07:18:35;;;;;;;0.90;0.43;;;23.50;99.90;;;;;;5061960;28;20581;-73
2022/08/15 07:21:07;;;;;;;1.17;1.07;;;23.60;99.90;;;;;;5079919;28;20481;-73
2022/08/15 07:24:04;;;;;;;0.70;0.30;;;23.60;99.90;;;;;;5085922;28;20524;-72
2022/08/15 07:26:57;;;;;;;0.80;0.50;;;23.70;99.90;;;;;;5082261;28;20449;-71
2022/08/15 07:29:29;;;;;;;0.70;0.20;;;23.70;99.90;;;;;;5074014;28;20434;-72
2022/08/15 07:32:09;;;;;;;0.70;0.40;;;23.70;99.90;;;;;;5076549;28;20488;-73
2022/08/15 07:35:05;;;;;;;1.33;0.70;;;23.80;99.90;;;;;;5069429;28;20800;-73
2022/08/15 07:37:41;;;;;;;2.10;0.97;;;23.90;99.90;;;;;;5074698;28;20442;-73
2022/08/15 07:40:25;;;;;;;0.70;0.20;;;23.70;99.90;;;;;;5063912;28;20506;-72
2022/08/15 07:43:01;;;;;;;0.70;0.20;;;23.70;99.90;;;;;;5074967;28;20438;-72
2022/08/15 07:45:34;;;;;;;0.70;0.10;;;23.80;99.90;;;;;;5074929;28;20464;-72
2022/08/15 07:48:05;;;;;;;1.37;0.50;;;24.20;99.90;;;;;;5072458;28;20799;-73
2022/08/15 07:50:38;;;;;;;4.40;1.33;;;23.90;99.90;;;;;;5065203;28;20458;-73
2022/08/15 07:53:17;;;;;;;1.20;0.50;;;23.90;99.90;;;;;;5066473;28;20445;-74
2022/08/15 07:56:05;;;;;;;0.70;0.20;;;23.90;99.90;;;;;;5067654;28;20437;-73
2022/08/15 07:59:08;;;;;;;0.70;0.20;;;24.00;99.90;;;;;;5072207;28;20481;-73
2022/08/15 08:01:36;;;;;;;1.03;0.83;;;24.00;99.90;;;;;;5073940;28;20465;-72
2022/08/15 08:04:09;;;;;;;3.33;1.23;;;24.00;99.90;;;;;;5073183;28;20477;-72
2022/08/15 08:06:55;;;;;;;0.70;0.20;;;23.90;99.90;;;;;;5074028;28;20499;-71
2022/08/15 08:09:30;;;;;;;0.70;0.20;;;23.90;99.90;;;;;;5073096;28;20429;-72
2022/08/15 08:12:08;;;;;;;0.70;0.20;;;23.90;99.90;;;;;;5073500;28;20523;-71
2022/08/15 08:14:48;;;;;;;1.00;0.77;;;;;;;;;;5065002;28;20466;-72
2022/08/15 08:17:24;;;;;;;1.07;0.53;;;23.90;99.90;;;;;;5066623;28;20448;-73
2022/08/15 08:20:21;;;;;;;1.47;0.47;;;24.10;99.90;;;;;;5073025;28;21015;-72
2022/08/15 08:22:57;;;;;;;2.20;1.20;;;24.10;99.90;;;;;;5074481;28;20840;-74
2022/08/15 08:25:30;;;;;;;1.03;0.30;;;24.00;99.90;;;;;;5074297;28;20819;-73
2022/08/15 08:28:28;;;;;;;0.90;0.40;;;24.00;99.90;;;;;;5073973;28;20445;-72
2022/08/15 08:31:05;;;;;;;1.37;1.27;;;24.00;99.90;;;;;;5073661;28;20545;-72
2022/08/15 08:33:45;;;;;;;0.70;0.20;;;24.00;99.90;;;;;;5073687;28;20446;-74
2022/08/15 08:36:22;;;;;;;0.70;0.30;;;24.00;99.90;;;;;;5073001;28;20442;-72
2022/08/15 08:39:19;;;;;;;0.70;0.17;;;24.10;99.90;;;;;;5073401;28;20478;-73
2022/08/15 08:42:03;;;;;;;1.37;0.77;;;24.10;99.90;;;;;;5073668;28;21001;-73
2022/08/15 08:45:00;;;;;;;0.70;0.20;;;24.10;99.90;;;;;;5073148;28;21025;-72
2022/08/15 08:47:58;;;;;;;0.70;0.10;;;24.10;99.90;;;;;;5073409;28;20548;-72
2022/08/15 08:50:33;;;;;;;0.70;0.20;;;24.00;99.90;;;;;;5073325;28;20972;-72
2022/08/15 08:53:17;;;;;;;1.10;0.73;;;24.00;99.90;;;;;;5073296;28;20456;-71
2022/08/15 08:56:03;;;;;;;0.90;0.60;;;24.00;99.90;;;;;;5073365;28;20442;-72
2022/08/15 08:58:40;;;;;;;0.70;0.33;;;23.90;99.90;;;;;;5072799;28;20558;-72
2022/08/15 09:01:15;;;;;;;0.70;0.10;;;23.90;99.90;;;;;;5073258;28;20469;-73
2022/08/15 09:03:57;;;;;;;0.90;0.40;;;23.90;99.90;;;;;;5073155;28;20445;-74
2022/08/15 09:06:32;;;;;;;0.70;0.20;;;24.00;99.90;;;;;;5072949;28;20453;-72
2022/08/15 09:09:18;;;;;;;1.30;1.20;;;23.90;99.90;;;;;;5073566;28;20449;-72
2022/08/15 09:11:55;;;;;;;0.70;0.40;;;23.90;99.90;;;;;;5072840;28;20547;-71
2022/08/15 09:14:28;;;;;;;3.10;1.70;;;23.90;99.90;;;;;;5067081;28;20826;-72
2022/08/15 09:17:07;;;;;;;0.70;0.10;;;24.00;99.90;;;;;;5061741;28;20822;-71
2022/08/15 09:20:04;;;;;;;0.70;0.10;;;24.30;99.90;;;;;;5060129;28;20470;-72
2022/08/15 09:22:32;;;;;;;2.97;0.57;;;24.30;99.90;;;;;;5051664;28;20867;-73
2022/08/15 09:25:00;;;;;;;2.23;1.33;;;24.50;99.90;;;;;;5051572;28;20916;-73
2022/08/15 09:27:43;;;;;;;1.00;0.57;;;24.70;99.90;;;;;;5065778;28;20446;-72
2022/08/15 09:30:25;;;;;;;0.70;0.10;;;24.70;99.90;;;;;;5069381;28;20466;-71
2022/08/15 09:33:41;;;;;;;2.40;0.97;;;24.80;99.90;;;;;;5069967;28;20517;-73
2022/08/15 09:36:35;;;;;;;0.70;0.17;;;25.00;99.90;;;;;;5070432;28;20509;-70
2022/08/15 09:39:23;;;;;;;0.80;0.30;;;25.00;99.90;;;;;;5070404;28;20476;-70
2022/08/15 09:42:10;;;;;;;0.70;0.23;;;25.00;99.90;;;;;;5072088;28;20465;-69
2022/08/15 09:45:16;;;;;;;4.13;2.00;;;24.90;99.90;;;;;;5071850;28;20536;-74
2022/08/15 09:48:00;;;;;;;1.20;0.80;;;24.80;99.90;;;;;;5072646;28;20426;-74
2022/08/15 09:50:44;;;;;;;0.80;0.30;;;24.50;99.90;;;;;;5071594;28;20458;-75
2022/08/15 09:53:29;;;;;;;0.80;0.47;;;24.50;99.90;;;;;;5070997;28;20430;-76
2022/08/15 09:56:19;;;;;;;2.30;0.73;;;24.70;99.90;;;;;;5072040;28;20445;-74
2022/08/15 09:59:04;;;;;;;0.73;0.27;;;24.70;99.90;;;;;;5072006;28;20429;-73
2022/08/15 10:01:45;;;;;;;1.10;0.73;;;24.60;99.90;;;;;;5068570;28;20488;-73
2022/08/15 10:04:40;;;;;;;0.80;0.23;;;24.70;99.90;;;;;;5064971;28;20438;-77
2022/08/15 10:07:47;;;;;;;1.10;0.83;;;24.80;99.90;;;;;;5070794;28;20438;-74
2022/08/15 10:10:23;;;;;;;0.70;0.20;;;24.80;99.90;;;;;;5018992;28;20492;-74
2022/08/15 10:13:26;;;;;;;1.17;0.83;;;24.80;99.90;;;;;;5071381;28;20504;-74
2022/08/15 10:15:58;;;;;;;0.70;0.20;;;24.80;99.90;;;;;;5070741;28;20511;-74
2022/08/15 10:19:02;;;;;;;1.13;0.73;;;24.80;99.90;;;;;;5070054;28;20476;-74
2022/08/15 10:21:37;;;;;;;1.20;1.07;;;24.50;99.90;;;;;;5072263;28;20966;-72
2022/08/15 10:24:24;;;;;;;0.80;0.40;;;24.50;99.90;;;;;;5073150;28;20444;-76
2022/08/15 10:27:22;;;;;;;0.80;0.40;;;24.50;99.90;;;;;;5074462;28;20442;-76
2022/08/15 10:30:08;;;;;;;0.70;0.20;;;24.60;99.90;;;;;;5052400;28;20449;-75
2022/08/15 10:32:57;;;;;;;0.90;0.47;;;24.70;99.90;;;;;;5062757;28;20426;-75
2022/08/15 10:35:45;;;;;;;0.90;0.40;;;24.50;99.90;;;;;;5070668;28;20450;-75
2022/08/15 10:38:20;;;;;;;0.80;0.20;;;24.60;99.90;;;;;;5071848;28;20494;-73
2022/08/15 10:41:13;;;;;;;0.70;0.33;;;24.80;99.90;;;;;;5071124;28;20524;-73
2022/08/15 10:43:58;;;;;;;1.00;0.67;;;24.70;99.90;;;;;;5071988;28;20469;-72
2022/08/15 10:46:44;;;;;;;1.30;0.70;;;24.60;99.90;;;;;;5070536;28;20520;-73
2022/08/15 10:49:26;;;;;;;0.70;0.30;;;24.70;99.90;;;;;;5070275;28;20810;-70
2022/08/15 10:52:20;;;;;;;0.90;0.30;;;24.80;99.90;;;;;;5070386;28;20477;-74
2022/08/15 10:55:18;;;;;;;1.50;0.90;;;24.90;99.90;;;;;;5070770;28;20495;-72
2022/08/15 10:58:14;;;;;;;0.70;0.20;;;25.10;99.90;;;;;;5073440;28;20507;-73
2022/08/15 11:00:48;;;;;;;1.30;0.60;;;25.00;99.90;;;;;;5074111;28;20543;-72
2022/08/15 11:03:24;;;;;;;4.73;3.10;;;25.10;99.90;;;;;;5074257;28;20430;-74
2022/08/15 11:06:14;;;;;;;0.80;0.30;;;25.20;99.90;;;;;;5074818;28;20434;-72
2022/08/15 11:08:49;;;;;;;7.43;1.07;;;25.40;99.90;;;;;;5074701;28;20492;-71
2022/08/15 11:11:19;;;;;;;0.70;0.20;;;25.70;99.90;;;;;;5074857;28;20465;-71
2022/08/15 11:13:52;;;;;;;0.70;0.10;;;25.90;99.90;;;;;;5075407;28;20453;-71
2022/08/15 11:16:30;;;;;;;0.77;0.37;;;25.90;99.90;;;;;;5074637;28;20472;-71
2022/08/15 11:19:16;;;;;;;0.70;0.10;;;26.10;99.90;;;;;;5075029;28;20426;-71
2022/08/15 11:22:06;;;;;;;0.80;0.30;;;26.20;99.90;;;;;;5064113;28;20811;-73
2022/08/15 11:24:39;;;;;;;1.27;0.43;;;26.20;99.90;;;;;;5060271;28;20458;-69
2022/08/15 11:27:12;;;;;;;0.80;0.43;;;26.30;99.90;;;;;;5066432;28;20919;-69
2022/08/15 11:29:53;;;;;;;1.83;0.57;;;26.30;99.90;;;;;;5068815;28;21247;-72
2022/08/15 11:32:28;;;;;;;8.73;3.50;;;26.40;99.90;;;;;;5073085;28;20457;-73
2022/08/15 11:34:58;;;;;;;3.80;3.27;;;26.40;99.90;;;;;;5073614;28;20434;-70
2022/08/15 11:37:31;;;;;;;1.10;0.60;;;26.20;99.90;;;;;;5073687;28;20453;-74
2022/08/15 11:40:08;;;;;;;0.70;0.20;;;26.00;99.90;;;;;;5074876;28;20477;-70
2022/08/15 11:42:39;;;;;;;0.70;0.10;;;26.00;99.90;;;;;;5072240;28;20442;-72
2022/08/15 11:45:30;;;;;;;0.80;0.37;;;26.10;99.90;;;;;;5072863;28;20499;-69
2022/08/15 11:48:26;;;;;;;0.70;0.20;;;26.10;99.90;;;;;;5073480;28;20441;-73
2022/08/15 11:51:07;;;;;;;2.37;1.10;;;26.50;99.90;;;;;;5070666;28;20484;-72
2022/08/15 11:53:41;;;;;;;1.23;1.13;;;26.60;99.90;;;;;;5073792;28;20441;-72
2022/08/15 11:56:09;;;;;;;7.03;1.03;;;26.40;99.90;;;;;;5074159;28;20528;-72
2022/08/15 11:58:55;;;;;;;2.20;2.00;;;26.40;99.90;;;;;;5075222;28;20483;-72
2022/08/15 12:01:32;;;;;;;2.50;1.70;;;26.60;99.90;;;;;;5074812;28;20485;-75
2022/08/15 12:04:06;;;;;;;0.70;0.20;;;26.60;99.90;;;;;;5073158;28;20434;-74
2022/08/15 12:06:55;;;;;;;1.67;0.70;;;26.70;99.90;;;;;;5072893;28;20525;-70
2022/08/15 12:09:26;;;;;;;1.60;1.30;;;26.90;99.90;;;;;;5074905;28;20441;-71
2022/08/15 12:12:29;;;;;;;0.80;0.30;;;26.60;99.90;;;;;;5065541;28;20496;-69
2022/08/15 12:15:20;;;;;;;0.90;0.43;;;26.20;99.90;;;;;;5067983;28;20441;-74
2022/08/15 12:18:09;;;;;;;0.70;0.20;;;26.20;99.90;;;;;;5073636;28;20532;-71
2022/08/15 12:21:08;;;;;;;0.70;0.40;;;26.00;99.90;;;;;;5073209;28;20527;-72
2022/08/15 12:23:47;;;;;;;1.10;0.67;;;26.00;99.90;;;;;;5068149;28;20500;-71
2022/08/15 12:26:18;;;;;;;2.03;1.23;;;25.90;99.90;;;;;;5066838;28;20434;-69
2022/08/15 12:29:07;;;;;;;0.70;0.20;;;25.90;99.90;;;;;;5076739;28;20441;-69
2022/08/15 12:31:39;;;;;;;1.00;0.43;;;25.90;99.90;;;;;;5070730;28;20542;-71
2022/08/15 12:34:14;;;;;;;0.70;0.30;;;23.60;99.90;;;;;;5064964;28;20483;-69
2022/08/15 12:37:00;;;;;;;1.43;1.23;;;26.20;99.90;;;;;;5078759;28;20425;-73
2022/08/15 12:39:36;;;;;;;1.13;0.77;;;26.20;99.90;;;;;;5069347;28;20976;-70
2022/08/15 12:42:13;;;;;;;0.70;0.10;;;26.40;99.90;;;;;;5066285;28;20473;-73
2022/08/15 12:45:06;;;;;;;1.43;1.10;;;26.40;99.90;;;;;;5077745;28;20525;-73
2022/08/15 12:47:42;;;;;;;1.77;1.10;;;26.10;99.90;;;;;;5079070;28;20446;-72
2022/08/15 12:50:30;;;;;;;0.90;0.50;;;25.70;99.90;;;;;;5080430;28;20464;-72
2022/08/15 12:53:01;;;;;;;0.90;0.57;;;25.50;99.90;;;;;;5077310;28;20498;-72
2022/08/15 12:55:38;;;;;;;0.73;0.37;;;25.20;99.90;;;;;;5083350;28;20461;-76
2022/08/15 12:58:07;;;;;;;4.50;1.50;;;25.10;99.90;;;;;;5085732;28;20548;-74
2022/08/15 13:00:45;;;;;;;2.70;1.57;;;24.50;99.90;;;;;;5078972;28;20560;-71
2022/08/15 13:03:30;;;;;;;1.27;0.97;;;24.40;99.90;;;;;;5076485;28;20421;-74
2022/08/15 13:06:23;;;;;;;2.80;0.87;;;24.30;99.90;;;;;;5072789;28;20811;-74
2022/08/15 13:09:05;;;;;;;0.80;0.40;;;24.40;99.90;;;;;;5069453;28;20461;-71
2022/08/15 13:11:35;;;;;;;0.70;0.10;;;24.30;99.90;;;;;;5075001;28;20887;-72
2022/08/15 13:14:04;;;;;;;3.97;3.00;;;24.30;99.90;;;;;;5072239;28;21335;-73
2022/08/15 13:16:35;;;;;;;0.90;0.63;;;24.30;99.90;;;;;;5064810;28;20802;-73
2022/08/15 13:19:25;;;;;;;0.80;0.60;;;24.30;99.90;;;;;;5070747;28;20453;-75
2022/08/15 13:25:01;;;;;;;0.80;0.37;;;24.60;99.90;;;;;;5072631;28;20448;-74
2022/08/15 13:27:31;;;;;;;0.80;0.20;;;24.70;99.90;;;;;;5074022;28;20437;-74
2022/08/15 13:30:01;;;;;;;1.10;0.33;;;24.80;99.90;;;;;;5064514;28;20490;-72
2022/08/15 13:32:33;;;;;;;0.80;0.30;;;24.70;99.90;;;;;;5073484;28;20483;-73
2022/08/15 13:35:06;;;;;;;0.80;0.30;;;24.80;99.90;;;;;;5075418;28;20438;-74
2022/08/15 13:37:37;;;;;;;1.00;0.50;;;24.80;99.90;;;;;;5072344;28;20532;-72
2022/08/15 13:40:26;;;;;;;0.70;0.30;;;24.90;99.90;;;;;;5071867;28;21028;-71
2022/08/15 13:42:59;;;;;;;7.40;2.70;;;24.90;99.90;;;;;;5071896;28;20488;-72
2022/08/15 13:45:38;;;;;;;0.70;0.30;;;25.00;99.90;;;;;;5071780;28;20532;-71
2022/08/15 13:48:32;;;;;;;0.70;0.20;;;25.20;99.90;;;;;;5071900;28;20491;-73
2022/08/15 13:51:11;;;;;;;1.57;1.23;;;25.60;99.90;;;;;;5072004;28;20496;-74
2022/08/15 13:53:40;;;;;;;1.00;0.70;;;25.50;99.90;;;;;;5071484;28;20549;-77
2022/08/15 13:56:33;;;;;;;0.70;0.27;;;25.50;99.90;;;;;;5070599;28;20437;-71
2022/08/15 13:59:01;;;;;;;0.70;0.20;;;25.30;99.90;;;;;;5071752;28;20452;-72